sensor_id;sensor_type;location;lat;lon;timestamp;temperature;humidity
11304;DHT22;5707;49.588;12.148;2023-04-03T00:01:28;-0.40;99.90
11304;DHT22;5707;49.588;12.148;2023-04-03T00:03:53;-0.50;99.90
11304;DHT22;5707;49.588;12.148;2023-04-03T00:06:19;-0.50;99.90
11304;DHT22;5707;49.588;12.148;2023-04-03T00:08:44;-0.40;99.90
11304;DHT22;5707;49.588;12.148;2023-04-03T00:11:10;-0.40;99.90
11304;DHT22;5707;49.588;12.148;2023-04-03T00:13:37;-0.50;99.90
11304;DHT22;5707;49.588;12.148;2023-04-03T00:16:02;-0.60;99.90
11304;DHT22;5707;49.588;12.148;2023-04-03T00:18:29;-0.60;99.90
11304;DHT22;5707;49.588;12.148;2023-04-03T00:20:54;-0.70;99.90
11304;DHT22;5707;49.588;12.148;2023-04-03T00:23:20;-0.80;99.90
11304;DHT22;5707;49.588;12.148;2023-04-03T00:25:46;-0.80;99.90
11304;DHT22;5707;49.588;12.148;2023-04-03T00:28:12;-0.60;99.90
11304;DHT22;5707;49.588;12.148;2023-04-03T00:30:37;-0.50;99.90
11304;DHT22;5707;49.588;12.148;2023-04-03T00:33:03;-0.50;99.90
11304;DHT22;5707;49.588;12.148;2023-04-03T00:35:29;-0.30;99.90
11304;DHT22;5707;49.588;12.148;2023-04-03T00:37:55;-0.20;99.90
11304;DHT22;5707;49.588;12.148;2023-04-03T00:40:23;-0.10;99.90
11304;DHT22;5707;49.588;12.148;2023-04-03T00:42:53;0.00;99.90
11304;DHT22;5707;49.588;12.148;2023-04-03T00:45:22;0.10;99.90
11304;DHT22;5707;49.588;12.148;2023-04-03T00:47:49;0.10;99.90
11304;DHT22;5707;49.588;12.148;2023-04-03T00:50:15;0.10;99.90
11304;DHT22;5707;49.588;12.148;2023-04-03T00:52:40;0.10;99.90
11304;DHT22;5707;49.588;12.148;2023-04-03T00:55:08;0.00;99.90
11304;DHT22;5707;49.588;12.148;2023-04-03T00:57:34;0.00;99.90
11304;DHT22;5707;49.588;12.148;2023-04-03T01:00:06;0.00;99.90
11304;DHT22;5707;49.588;12.148;2023-04-03T01:02:32;0.10;99.90
11304;DHT22;5707;49.588;12.148;2023-04-03T01:04:58;0.10;99.90
11304;DHT22;5707;49.588;12.148;2023-04-03T01:07:29;0.20;99.90
11304;DHT22;5707;49.588;12.148;2023-04-03T01:10:00;0.10;99.90
11304;DHT22;5707;49.588;12.148;2023-04-03T01:12:32;0.10;99.90
11304;DHT22;5707;49.588;12.148;2023-04-03T01:15:00;0.10;99.90
11304;DHT22;5707;49.588;12.148;2023-04-03T01:17:32;0.10;99.90
11304;DHT22;5707;49.588;12.148;2023-04-03T01:25:49;0.10;99.90
11304;DHT22;5707;49.588;12.148;2023-04-03T01:28:21;0.00;99.90
11304;DHT22;5707;49.588;12.148;2023-04-03T01:30:59;-0.10;99.90
11304;DHT22;5707;49.588;12.148;2023-04-03T01:33:26;-0.10;99.90
11304;DHT22;5707;49.588;12.148;2023-04-03T01:35:52;-0.20;99.90
11304;DHT22;5707;49.588;12.148;2023-04-03T01:38:17;-0.30;99.90
11304;DHT22;5707;49.588;12.148;2023-04-03T01:40:43;-0.40;99.90
11304;DHT22;5707;49.588;12.148;2023-04-03T01:43:08;-0.30;99.90
11304;DHT22;5707;49.588;12.148;2023-04-03T01:45:34;-0.30;99.90
11304;DHT22;5707;49.588;12.148;2023-04-03T01:48:00;-0.40;99.90
11304;DHT22;5707;49.588;12.148;2023-04-03T01:50:25;-0.50;99.90
11304;DHT22;5707;49.588;12.148;2023-04-03T01:52:51;-0.60;99.90
11304;DHT22;5707;49.588;12.148;2023-04-03T01:55:16;-0.70;99.90
11304;DHT22;5707;49.588;12.148;2023-04-03T01:57:42;-0.80;99.90
11304;DHT22;5707;49.588;12.148;2023-04-03T02:00:08;-0.90;99.90
11304;DHT22;5707;49.588;12.148;2023-04-03T02:02:34;-1.00;99.90
11304;DHT22;5707;49.588;12.148;2023-04-03T02:05:00;-1.00;99.90
11304;DHT22;5707;49.588;12.148;2023-04-03T02:07:26;-1.10;99.90
11304;DHT22;5707;49.588;12.148;2023-04-03T02:09:51;-1.30;99.90
11304;DHT22;5707;49.588;12.148;2023-04-03T02:12:17;-1.40;99.90
11304;DHT22;5707;49.588;12.148;2023-04-03T02:14:42;-1.40;99.90
11304;DHT22;5707;49.588;12.148;2023-04-03T02:17:08;-1.50;99.90
11304;DHT22;5707;49.588;12.148;2023-04-03T02:19:34;-1.60;99.90
11304;DHT22;5707;49.588;12.148;2023-04-03T02:22:01;-1.60;99.90
11304;DHT22;5707;49.588;12.148;2023-04-03T02:24:27;-1.50;99.90
11304;DHT22;5707;49.588;12.148;2023-04-03T02:26:53;-1.50;99.90
11304;DHT22;5707;49.588;12.148;2023-04-03T02:29:19;-1.40;99.90
11304;DHT22;5707;49.588;12.148;2023-04-03T02:31:44;-1.40;99.90
11304;DHT22;5707;49.588;12.148;2023-04-03T02:34:10;-1.40;99.90
11304;DHT22;5707;49.588;12.148;2023-04-03T02:36:36;-1.40;99.90
11304;DHT22;5707;49.588;12.148;2023-04-03T02:39:02;-1.30;99.90
11304;DHT22;5707;49.588;12.148;2023-04-03T02:41:27;-1.20;99.90
11304;DHT22;5707;49.588;12.148;2023-04-03T02:44:00;-1.20;99.90
11304;DHT22;5707;49.588;12.148;2023-04-03T02:46:26;-1.20;99.90
11304;DHT22;5707;49.588;12.148;2023-04-03T02:48:51;-1.30;99.90
11304;DHT22;5707;49.588;12.148;2023-04-03T02:51:17;-1.40;99.90
11304;DHT22;5707;49.588;12.148;2023-04-03T02:53:43;-1.60;99.90
11304;DHT22;5707;49.588;12.148;2023-04-03T02:56:08;-1.70;99.90
11304;DHT22;5707;49.588;12.148;2023-04-03T02:58:34;-1.80;99.90
11304;DHT22;5707;49.588;12.148;2023-04-03T03:00:59;-1.80;99.90
11304;DHT22;5707;49.588;12.148;2023-04-03T03:03:25;-1.90;99.90
11304;DHT22;5707;49.588;12.148;2023-04-03T03:06:10;-2.00;99.90
11304;DHT22;5707;49.588;12.148;2023-04-03T03:08:37;-2.00;99.90
11304;DHT22;5707;49.588;12.148;2023-04-03T03:11:03;-2.00;99.90
11304;DHT22;5707;49.588;12.148;2023-04-03T03:13:29;-1.90;99.90
11304;DHT22;5707;49.588;12.148;2023-04-03T03:15:55;-1.80;99.90
11304;DHT22;5707;49.588;12.148;2023-04-03T03:18:21;-1.60;99.90
11304;DHT22;5707;49.588;12.148;2023-04-03T03:20:50;-1.40;99.90
11304;DHT22;5707;49.588;12.148;2023-04-03T03:23:16;-1.30;99.90
11304;DHT22;5707;49.588;12.148;2023-04-03T03:25:41;-1.20;99.90
11304;DHT22;5707;49.588;12.148;2023-04-03T03:28:07;-1.10;99.90
11304;DHT22;5707;49.588;12.148;2023-04-03T03:30:33;-1.00;99.90
11304;DHT22;5707;49.588;12.148;2023-04-03T03:32:59;-0.90;99.90
11304;DHT22;5707;49.588;12.148;2023-04-03T03:35:25;-0.90;99.90
11304;DHT22;5707;49.588;12.148;2023-04-03T03:37:51;-0.80;99.90
11304;DHT22;5707;49.588;12.148;2023-04-03T03:40:16;-0.80;99.90
11304;DHT22;5707;49.588;12.148;2023-04-03T03:42:42;-0.80;99.90
11304;DHT22;5707;49.588;12.148;2023-04-03T03:45:08;-0.70;99.90
11304;DHT22;5707;49.588;12.148;2023-04-03T03:47:34;-0.70;99.90
11304;DHT22;5707;49.588;12.148;2023-04-03T03:49:59;-0.70;99.90
11304;DHT22;5707;49.588;12.148;2023-04-03T03:52:25;-0.70;99.90
11304;DHT22;5707;49.588;12.148;2023-04-03T03:54:51;-0.70;99.90
11304;DHT22;5707;49.588;12.148;2023-04-03T03:57:17;-0.70;99.90
11304;DHT22;5707;49.588;12.148;2023-04-03T03:59:43;-0.60;99.90
11304;DHT22;5707;49.588;12.148;2023-04-03T04:02:10;-0.50;99.90
11304;DHT22;5707;49.588;12.148;2023-04-03T04:04:35;-0.50;99.90
11304;DHT22;5707;49.588;12.148;2023-04-03T04:07:01;-0.50;99.90
11304;DHT22;5707;49.588;12.148;2023-04-03T04:09:27;-0.40;99.90
11304;DHT22;5707;49.588;12.148;2023-04-03T04:11:53;-0.30;99.90
11304;DHT22;5707;49.588;12.148;2023-04-03T04:14:19;-0.30;99.90
11304;DHT22;5707;49.588;12.148;2023-04-03T04:16:46;-0.20;99.90
11304;DHT22;5707;49.588;12.148;2023-04-03T04:19:12;-0.30;99.90
11304;DHT22;5707;49.588;12.148;2023-04-03T04:21:38;-0.20;99.90
11304;DHT22;5707;49.588;12.148;2023-04-03T04:24:06;-0.30;99.90
11304;DHT22;5707;49.588;12.148;2023-04-03T04:26:31;-0.30;99.90
11304;DHT22;5707;49.588;12.148;2023-04-03T04:28:57;-0.20;99.90
11304;DHT22;5707;49.588;12.148;2023-04-03T04:31:22;-0.20;99.90
11304;DHT22;5707;49.588;12.148;2023-04-03T04:33:48;-0.30;99.90
11304;DHT22;5707;49.588;12.148;2023-04-03T04:36:14;-0.20;99.90
11304;DHT22;5707;49.588;12.148;2023-04-03T04:38:40;-0.30;99.90
11304;DHT22;5707;49.588;12.148;2023-04-03T04:41:06;-0.20;99.90
11304;DHT22;5707;49.588;12.148;2023-04-03T04:43:31;-0.30;99.90
11304;DHT22;5707;49.588;12.148;2023-04-03T04:46:07;-0.30;99.90
11304;DHT22;5707;49.588;12.148;2023-04-03T04:48:34;-0.30;99.90
11304;DHT22;5707;49.588;12.148;2023-04-03T04:51:00;-0.30;99.90
11304;DHT22;5707;49.588;12.148;2023-04-03T04:53:26;-0.30;99.90
11304;DHT22;5707;49.588;12.148;2023-04-03T04:55:52;-0.30;99.90
11304;DHT22;5707;49.588;12.148;2023-04-03T04:58:18;-0.30;99.90
11304;DHT22;5707;49.588;12.148;2023-04-03T05:00:44;-0.20;99.90
11304;DHT22;5707;49.588;12.148;2023-04-03T05:03:10;-0.10;99.90
11304;DHT22;5707;49.588;12.148;2023-04-03T05:05:35;-0.10;99.90
11304;DHT22;5707;49.588;12.148;2023-04-03T05:08:01;0.00;99.90
11304;DHT22;5707;49.588;12.148;2023-04-03T05:10:28;0.00;99.90
11304;DHT22;5707;49.588;12.148;2023-04-03T05:12:54;0.10;99.90
11304;DHT22;5707;49.588;12.148;2023-04-03T05:15:19;0.20;99.90
11304;DHT22;5707;49.588;12.148;2023-04-03T05:17:45;0.20;99.90
11304;DHT22;5707;49.588;12.148;2023-04-03T05:20:11;0.30;99.90
11304;DHT22;5707;49.588;12.148;2023-04-03T05:22:37;0.40;99.90
11304;DHT22;5707;49.588;12.148;2023-04-03T05:25:03;0.50;99.90
11304;DHT22;5707;49.588;12.148;2023-04-03T05:27:29;0.60;99.90
11304;DHT22;5707;49.588;12.148;2023-04-03T05:29:55;0.60;99.90
11304;DHT22;5707;49.588;12.148;2023-04-03T05:32:22;0.70;99.90
11304;DHT22;5707;49.588;12.148;2023-04-03T05:34:47;0.80;99.90
11304;DHT22;5707;49.588;12.148;2023-04-03T05:37:13;0.90;99.90
11304;DHT22;5707;49.588;12.148;2023-04-03T05:39:38;0.90;99.90
11304;DHT22;5707;49.588;12.148;2023-04-03T05:42:06;1.00;99.90
11304;DHT22;5707;49.588;12.148;2023-04-03T05:44:32;1.00;99.90
11304;DHT22;5707;49.588;12.148;2023-04-03T05:46:58;1.10;99.90
11304;DHT22;5707;49.588;12.148;2023-04-03T05:49:24;1.10;99.90
11304;DHT22;5707;49.588;12.148;2023-04-03T05:51:49;1.20;99.90
11304;DHT22;5707;49.588;12.148;2023-04-03T05:54:23;1.30;99.90
11304;DHT22;5707;49.588;12.148;2023-04-03T05:56:49;1.40;99.90
11304;DHT22;5707;49.588;12.148;2023-04-03T05:59:16;1.50;99.90
11304;DHT22;5707;49.588;12.148;2023-04-03T06:01:42;1.60;99.90
11304;DHT22;5707;49.588;12.148;2023-04-03T06:04:08;1.80;99.90
11304;DHT22;5707;49.588;12.148;2023-04-03T06:06:50;1.90;99.90
11304;DHT22;5707;49.588;12.148;2023-04-03T06:09:17;2.10;99.90
11304;DHT22;5707;49.588;12.148;2023-04-03T06:11:43;2.20;99.90
11304;DHT22;5707;49.588;12.148;2023-04-03T06:14:09;2.40;99.90
11304;DHT22;5707;49.588;12.148;2023-04-03T06:16:35;2.60;99.90
11304;DHT22;5707;49.588;12.148;2023-04-03T06:19:01;2.70;99.90
11304;DHT22;5707;49.588;12.148;2023-04-03T06:21:27;2.90;99.90
11304;DHT22;5707;49.588;12.148;2023-04-03T06:23:53;3.00;99.90
11304;DHT22;5707;49.588;12.148;2023-04-03T06:26:19;3.20;99.90
11304;DHT22;5707;49.588;12.148;2023-04-03T06:28:44;3.40;99.90
11304;DHT22;5707;49.588;12.148;2023-04-03T06:31:10;3.50;99.90
11304;DHT22;5707;49.588;12.148;2023-04-03T06:33:36;3.70;99.90
11304;DHT22;5707;49.588;12.148;2023-04-03T06:36:04;3.90;99.90
11304;DHT22;5707;49.588;12.148;2023-04-03T06:38:30;4.00;99.90
11304;DHT22;5707;49.588;12.148;2023-04-03T06:40:55;4.20;99.90
11304;DHT22;5707;49.588;12.148;2023-04-03T06:43:22;4.30;99.90
11304;DHT22;5707;49.588;12.148;2023-04-03T06:45:47;4.30;99.90
11304;DHT22;5707;49.588;12.148;2023-04-03T06:48:13;4.30;99.90
11304;DHT22;5707;49.588;12.148;2023-04-03T06:50:39;4.30;99.90
11304;DHT22;5707;49.588;12.148;2023-04-03T06:53:04;4.30;99.90
11304;DHT22;5707;49.588;12.148;2023-04-03T06:55:30;4.40;99.90
11304;DHT22;5707;49.588;12.148;2023-04-03T06:57:57;4.50;99.90
11304;DHT22;5707;49.588;12.148;2023-04-03T07:00:22;4.60;99.90
11304;DHT22;5707;49.588;12.148;2023-04-03T07:02:48;4.80;99.90
11304;DHT22;5707;49.588;12.148;2023-04-03T07:05:13;5.10;99.90
11304;DHT22;5707;49.588;12.148;2023-04-03T07:07:39;5.00;99.90
11304;DHT22;5707;49.588;12.148;2023-04-03T07:10:06;4.80;99.90
11304;DHT22;5707;49.588;12.148;2023-04-03T07:12:32;4.70;99.90
11304;DHT22;5707;49.588;12.148;2023-04-03T07:14:58;4.60;99.90
11304;DHT22;5707;49.588;12.148;2023-04-03T07:17:24;4.40;99.90
11304;DHT22;5707;49.588;12.148;2023-04-03T07:19:51;4.30;99.90
11304;DHT22;5707;49.588;12.148;2023-04-03T07:22:17;4.30;99.90
11304;DHT22;5707;49.588;12.148;2023-04-03T07:24:43;4.20;99.90
11304;DHT22;5707;49.588;12.148;2023-04-03T07:27:08;3.90;99.90
11304;DHT22;5707;49.588;12.148;2023-04-03T07:29:34;4.10;99.90
11304;DHT22;5707;49.588;12.148;2023-04-03T07:32:01;4.30;99.90
11304;DHT22;5707;49.588;12.148;2023-04-03T07:34:26;4.20;99.90
11304;DHT22;5707;49.588;12.148;2023-04-03T07:36:52;4.20;99.90
11304;DHT22;5707;49.588;12.148;2023-04-03T07:39:18;4.20;99.90
11304;DHT22;5707;49.588;12.148;2023-04-03T07:41:44;4.50;99.90
11304;DHT22;5707;49.588;12.148;2023-04-03T07:44:09;4.60;99.90
11304;DHT22;5707;49.588;12.148;2023-04-03T07:46:36;4.60;99.90
11304;DHT22;5707;49.588;12.148;2023-04-03T07:49:02;4.60;99.90
11304;DHT22;5707;49.588;12.148;2023-04-03T07:51:27;4.50;99.90
11304;DHT22;5707;49.588;12.148;2023-04-03T07:53:55;4.40;99.90
11304;DHT22;5707;49.588;12.148;2023-04-03T07:56:20;4.30;99.90
11304;DHT22;5707;49.588;12.148;2023-04-03T07:58:46;4.20;99.90
11304;DHT22;5707;49.588;12.148;2023-04-03T08:01:12;4.30;99.90
11304;DHT22;5707;49.588;12.148;2023-04-03T08:03:38;4.30;99.90
11304;DHT22;5707;49.588;12.148;2023-04-03T08:06:06;4.50;99.90
11304;DHT22;5707;49.588;12.148;2023-04-03T08:08:33;4.70;99.90
11304;DHT22;5707;49.588;12.148;2023-04-03T08:11:00;4.50;99.90
11304;DHT22;5707;49.588;12.148;2023-04-03T08:13:28;4.10;99.90
11304;DHT22;5707;49.588;12.148;2023-04-03T08:15:54;3.90;99.90
11304;DHT22;5707;49.588;12.148;2023-04-03T08:18:21;3.70;99.90
11304;DHT22;5707;49.588;12.148;2023-04-03T08:20:50;3.40;99.90
11304;DHT22;5707;49.588;12.148;2023-04-03T08:23:15;3.30;99.90
11304;DHT22;5707;49.588;12.148;2023-04-03T08:25:42;3.30;99.90
11304;DHT22;5707;49.588;12.148;2023-04-03T08:28:09;3.30;99.90
11304;DHT22;5707;49.588;12.148;2023-04-03T08:30:35;3.30;99.90
11304;DHT22;5707;49.588;12.148;2023-04-03T08:33:02;3.40;99.90
11304;DHT22;5707;49.588;12.148;2023-04-03T08:35:28;3.50;99.90
11304;DHT22;5707;49.588;12.148;2023-04-03T08:37:54;3.50;99.90
11304;DHT22;5707;49.588;12.148;2023-04-03T08:40:19;3.50;99.90
11304;DHT22;5707;49.588;12.148;2023-04-03T08:45:43;3.50;99.90
11304;DHT22;5707;49.588;12.148;2023-04-03T08:48:21;3.70;99.90
11304;DHT22;5707;49.588;12.148;2023-04-03T08:50:53;4.10;99.90
11304;DHT22;5707;49.588;12.148;2023-04-03T08:53:23;4.30;99.90
11304;DHT22;5707;49.588;12.148;2023-04-03T08:55:53;4.20;99.90
11304;DHT22;5707;49.588;12.148;2023-04-03T08:58:24;4.30;99.90
11304;DHT22;5707;49.588;12.148;2023-04-03T09:00:58;4.60;99.90
11304;DHT22;5707;49.588;12.148;2023-04-03T09:03:24;4.70;99.90
11304;DHT22;5707;49.588;12.148;2023-04-03T09:06:07;4.90;99.90
11304;DHT22;5707;49.588;12.148;2023-04-03T09:12:05;4.40;99.90
11304;DHT22;5707;49.588;12.148;2023-04-03T09:17:13;4.60;99.90
11304;DHT22;5707;49.588;12.148;2023-04-03T09:19:57;5.30;99.90
11304;DHT22;5707;49.588;12.148;2023-04-03T09:22:25;6.20;99.90
11304;DHT22;5707;49.588;12.148;2023-04-03T09:25:15;6.60;91.00
11304;DHT22;5707;49.588;12.148;2023-04-03T09:27:42;6.70;90.20
11304;DHT22;5707;49.588;12.148;2023-04-03T09:30:24;6.70;81.50
11304;DHT22;5707;49.588;12.148;2023-04-03T09:32:53;6.80;87.50
11304;DHT22;5707;49.588;12.148;2023-04-03T09:35:26;6.70;79.40
11304;DHT22;5707;49.588;12.148;2023-04-03T09:38:20;6.30;82.00
11304;DHT22;5707;49.588;12.148;2023-04-03T09:40:48;6.10;78.30
11304;DHT22;5707;49.588;12.148;2023-04-03T09:45:44;5.70;73.70
11304;DHT22;5707;49.588;12.148;2023-04-03T09:50:52;5.40;78.60
11304;DHT22;5707;49.588;12.148;2023-04-03T09:53:39;5.00;75.30
11304;DHT22;5707;49.588;12.148;2023-04-03T09:58:49;5.00;79.20
11304;DHT22;5707;49.588;12.148;2023-04-03T10:01:22;5.00;81.20
11304;DHT22;5707;49.588;12.148;2023-04-03T10:06:32;5.10;82.50
11304;DHT22;5707;49.588;12.148;2023-04-03T10:09:00;5.10;76.70
11304;DHT22;5707;49.588;12.148;2023-04-03T10:11:30;5.00;71.30
11304;DHT22;5707;49.588;12.148;2023-04-03T10:13:58;4.90;84.90
11304;DHT22;5707;49.588;12.148;2023-04-03T10:16:27;5.00;76.20
11304;DHT22;5707;49.588;12.148;2023-04-03T10:21:48;5.00;85.70
11304;DHT22;5707;49.588;12.148;2023-04-03T10:24:36;5.10;85.90
11304;DHT22;5707;49.588;12.148;2023-04-03T10:27:26;5.10;74.80
11304;DHT22;5707;49.588;12.148;2023-04-03T10:33:04;4.90;73.70
11304;DHT22;5707;49.588;12.148;2023-04-03T10:35:39;5.00;63.10
11304;DHT22;5707;49.588;12.148;2023-04-03T10:38:39;5.00;71.70
11304;DHT22;5707;49.588;12.148;2023-04-03T10:41:36;5.10;69.00
11304;DHT22;5707;49.588;12.148;2023-04-03T10:44:09;5.10;73.50
11304;DHT22;5707;49.588;12.148;2023-04-03T10:46:45;5.10;66.80
11304;DHT22;5707;49.588;12.148;2023-04-03T10:49:51;5.00;71.60
11304;DHT22;5707;49.588;12.148;2023-04-03T10:57:31;5.10;62.30
11304;DHT22;5707;49.588;12.148;2023-04-03T11:00:05;5.20;60.20
11304;DHT22;5707;49.588;12.148;2023-04-03T11:02:51;5.20;58.90
11304;DHT22;5707;49.588;12.148;2023-04-03T11:05:29;5.20;55.70
11304;DHT22;5707;49.588;12.148;2023-04-03T11:08:02;5.20;61.10
11304;DHT22;5707;49.588;12.148;2023-04-03T11:10:45;5.30;65.40
11304;DHT22;5707;49.588;12.148;2023-04-03T11:13:21;5.40;62.30
11304;DHT22;5707;49.588;12.148;2023-04-03T11:15:49;5.40;71.30
11304;DHT22;5707;49.588;12.148;2023-04-03T11:18:19;5.50;58.30
11304;DHT22;5707;49.588;12.148;2023-04-03T11:21:09;5.50;67.30
11304;DHT22;5707;49.588;12.148;2023-04-03T11:23:39;5.50;64.80
11304;DHT22;5707;49.588;12.148;2023-04-03T11:26:09;5.50;62.50
11304;DHT22;5707;49.588;12.148;2023-04-03T11:28:36;5.50;62.80
11304;DHT22;5707;49.588;12.148;2023-04-03T11:31:23;5.70;62.90
11304;DHT22;5707;49.588;12.148;2023-04-03T11:36:46;6.00;75.90
11304;DHT22;5707;49.588;12.148;2023-04-03T11:39:26;6.20;68.10
11304;DHT22;5707;49.588;12.148;2023-04-03T11:41:53;6.40;62.10
11304;DHT22;5707;49.588;12.148;2023-04-03T11:44:32;6.30;56.40
11304;DHT22;5707;49.588;12.148;2023-04-03T11:47:00;6.30;53.20
11304;DHT22;5707;49.588;12.148;2023-04-03T12:13:35;7.60;59.30
11304;DHT22;5707;49.588;12.148;2023-04-03T12:16:02;7.50;48.10
11304;DHT22;5707;49.588;12.148;2023-04-03T12:18:42;7.50;54.40
11304;DHT22;5707;49.588;12.148;2023-04-03T12:21:09;7.60;53.20
11304;DHT22;5707;49.588;12.148;2023-04-03T12:23:36;7.60;46.30
11304;DHT22;5707;49.588;12.148;2023-04-03T12:26:19;7.60;44.90
11304;DHT22;5707;49.588;12.148;2023-04-03T12:28:48;7.60;48.30
11304;DHT22;5707;49.588;12.148;2023-04-03T12:31:15;7.70;50.10
11304;DHT22;5707;49.588;12.148;2023-04-03T12:34:01;7.50;52.00
11304;DHT22;5707;49.588;12.148;2023-04-03T12:42:40;7.10;44.90
11304;DHT22;5707;49.588;12.148;2023-04-03T12:45:21;7.10;45.20
11304;DHT22;5707;49.588;12.148;2023-04-03T12:47:49;7.20;46.60
11304;DHT22;5707;49.588;12.148;2023-04-03T12:50:27;7.20;47.10
11304;DHT22;5707;49.588;12.148;2023-04-03T12:55:23;7.60;50.10
11304;DHT22;5707;49.588;12.148;2023-04-03T12:57:49;8.00;48.00
11304;DHT22;5707;49.588;12.148;2023-04-03T13:00:35;8.20;44.60
11304;DHT22;5707;49.588;12.148;2023-04-03T13:03:05;8.40;43.70
11304;DHT22;5707;49.588;12.148;2023-04-03T13:05:32;8.60;44.40
11304;DHT22;5707;49.588;12.148;2023-04-03T13:08:01;8.80;49.20
11304;DHT22;5707;49.588;12.148;2023-04-03T13:10:28;8.90;48.10
11304;DHT22;5707;49.588;12.148;2023-04-03T13:12:58;9.10;41.60
11304;DHT22;5707;49.588;12.148;2023-04-03T13:15:40;9.20;31.40
11304;DHT22;5707;49.588;12.148;2023-04-03T13:18:22;9.10;31.60
11304;DHT22;5707;49.588;12.148;2023-04-03T13:20:48;9.10;32.30
11304;DHT22;5707;49.588;12.148;2023-04-03T13:23:17;9.20;33.80
11304;DHT22;5707;49.588;12.148;2023-04-03T13:25:47;9.30;34.00
11304;DHT22;5707;49.588;12.148;2023-04-03T13:28:17;9.20;31.80
11304;DHT22;5707;49.588;12.148;2023-04-03T13:33:34;8.90;31.60
11304;DHT22;5707;49.588;12.148;2023-04-03T13:36:43;8.90;34.70
11304;DHT22;5707;49.588;12.148;2023-04-03T13:41:41;9.20;33.70
11304;DHT22;5707;49.588;12.148;2023-04-03T13:46:53;8.90;34.10
11304;DHT22;5707;49.588;12.148;2023-04-03T13:51:52;8.70;33.80
11304;DHT22;5707;49.588;12.148;2023-04-03T13:54:24;8.80;33.70
11304;DHT22;5707;49.588;12.148;2023-04-03T13:56:55;8.90;32.70
11304;DHT22;5707;49.588;12.148;2023-04-03T13:59:31;9.10;30.70
11304;DHT22;5707;49.588;12.148;2023-04-03T14:06:55;9.50;34.00
11304;DHT22;5707;49.588;12.148;2023-04-03T14:09:23;9.50;30.90
11304;DHT22;5707;49.588;12.148;2023-04-03T14:11:50;9.70;32.80
11304;DHT22;5707;49.588;12.148;2023-04-03T14:14:24;9.70;39.00
11304;DHT22;5707;49.588;12.148;2023-04-03T14:16:55;9.30;33.30
11304;DHT22;5707;49.588;12.148;2023-04-03T14:19:34;8.60;38.80
11304;DHT22;5707;49.588;12.148;2023-04-03T14:22:06;8.40;39.90
11304;DHT22;5707;49.588;12.148;2023-04-03T14:24:36;8.10;37.70
11304;DHT22;5707;49.588;12.148;2023-04-03T14:27:01;7.90;41.90
11304;DHT22;5707;49.588;12.148;2023-04-03T14:29:27;8.00;41.80
11304;DHT22;5707;49.588;12.148;2023-04-03T14:31:53;8.00;36.90
11304;DHT22;5707;49.588;12.148;2023-04-03T14:34:18;8.10;41.50
11304;DHT22;5707;49.588;12.148;2023-04-03T14:36:45;8.40;40.00
11304;DHT22;5707;49.588;12.148;2023-04-03T14:39:17;8.70;41.00
11304;DHT22;5707;49.588;12.148;2023-04-03T14:41:43;8.60;42.30
11304;DHT22;5707;49.588;12.148;2023-04-03T14:44:08;8.40;44.60
11304;DHT22;5707;49.588;12.148;2023-04-03T14:46:36;8.40;42.70
11304;DHT22;5707;49.588;12.148;2023-04-03T14:49:03;8.30;42.20
11304;DHT22;5707;49.588;12.148;2023-04-03T14:51:33;8.20;42.40
11304;DHT22;5707;49.588;12.148;2023-04-03T14:53:59;7.90;41.00
11304;DHT22;5707;49.588;12.148;2023-04-03T14:56:28;7.80;47.70
11304;DHT22;5707;49.588;12.148;2023-04-03T14:58:59;7.80;43.00
11304;DHT22;5707;49.588;12.148;2023-04-03T15:01:26;7.90;43.40
11304;DHT22;5707;49.588;12.148;2023-04-03T15:03:52;8.00;43.20
11304;DHT22;5707;49.588;12.148;2023-04-03T15:06:18;8.10;42.10
11304;DHT22;5707;49.588;12.148;2023-04-03T15:08:45;8.00;43.50
11304;DHT22;5707;49.588;12.148;2023-04-03T15:11:12;7.80;46.50
11304;DHT22;5707;49.588;12.148;2023-04-03T15:13:38;7.70;45.10
11304;DHT22;5707;49.588;12.148;2023-04-03T15:16:05;7.60;43.50
11304;DHT22;5707;49.588;12.148;2023-04-03T15:18:37;7.50;46.60
11304;DHT22;5707;49.588;12.148;2023-04-03T15:21:04;7.40;49.20
11304;DHT22;5707;49.588;12.148;2023-04-03T15:23:29;7.20;48.70
11304;DHT22;5707;49.588;12.148;2023-04-03T15:25:55;7.10;50.40
11304;DHT22;5707;49.588;12.148;2023-04-03T15:28:37;7.00;50.60
11304;DHT22;5707;49.588;12.148;2023-04-03T15:31:04;6.70;47.60
11304;DHT22;5707;49.588;12.148;2023-04-03T15:33:30;6.60;47.20
11304;DHT22;5707;49.588;12.148;2023-04-03T15:35:56;6.40;49.50
11304;DHT22;5707;49.588;12.148;2023-04-03T15:38:22;6.40;50.20
11304;DHT22;5707;49.588;12.148;2023-04-03T15:40:47;6.20;49.50
11304;DHT22;5707;49.588;12.148;2023-04-03T15:43:14;5.90;51.40
11304;DHT22;5707;49.588;12.148;2023-04-03T15:45:40;5.80;53.90
11304;DHT22;5707;49.588;12.148;2023-04-03T15:48:06;5.80;55.60
11304;DHT22;5707;49.588;12.148;2023-04-03T15:50:33;5.70;57.50
11304;DHT22;5707;49.588;12.148;2023-04-03T15:52:59;5.60;63.80
11304;DHT22;5707;49.588;12.148;2023-04-03T15:55:28;5.70;59.90
11304;DHT22;5707;49.588;12.148;2023-04-03T15:57:54;5.60;62.20
11304;DHT22;5707;49.588;12.148;2023-04-03T16:00:21;5.60;60.40
11304;DHT22;5707;49.588;12.148;2023-04-03T16:02:49;5.50;58.90
11304;DHT22;5707;49.588;12.148;2023-04-03T16:05:16;5.30;66.10
11304;DHT22;5707;49.588;12.148;2023-04-03T16:07:43;5.30;63.80
11304;DHT22;5707;49.588;12.148;2023-04-03T16:10:10;5.30;66.40
11304;DHT22;5707;49.588;12.148;2023-04-03T16:12:36;5.30;62.00
11304;DHT22;5707;49.588;12.148;2023-04-03T16:15:03;5.20;61.30
11304;DHT22;5707;49.588;12.148;2023-04-03T16:17:28;5.10;61.50
11304;DHT22;5707;49.588;12.148;2023-04-03T16:19:55;4.90;62.20
11304;DHT22;5707;49.588;12.148;2023-04-03T16:22:23;4.90;61.30
11304;DHT22;5707;49.588;12.148;2023-04-03T16:24:50;4.80;61.20
11304;DHT22;5707;49.588;12.148;2023-04-03T16:27:16;4.60;61.50
11304;DHT22;5707;49.588;12.148;2023-04-03T16:29:42;4.50;64.10
11304;DHT22;5707;49.588;12.148;2023-04-03T16:32:07;4.40;66.60
11304;DHT22;5707;49.588;12.148;2023-04-03T16:34:33;4.40;67.00
11304;DHT22;5707;49.588;12.148;2023-04-03T16:36:59;4.30;68.90
11304;DHT22;5707;49.588;12.148;2023-04-03T16:39:25;4.30;67.80
11304;DHT22;5707;49.588;12.148;2023-04-03T16:41:51;4.20;69.00
11304;DHT22;5707;49.588;12.148;2023-04-03T16:44:16;4.10;68.10
11304;DHT22;5707;49.588;12.148;2023-04-03T16:46:42;4.00;73.00
11304;DHT22;5707;49.588;12.148;2023-04-03T16:49:08;3.90;69.50
11304;DHT22;5707;49.588;12.148;2023-04-03T16:51:33;3.90;71.10
11304;DHT22;5707;49.588;12.148;2023-04-03T16:53:59;3.80;73.50
11304;DHT22;5707;49.588;12.148;2023-04-03T16:56:25;3.70;68.80
11304;DHT22;5707;49.588;12.148;2023-04-03T16:58:52;3.70;71.70
11304;DHT22;5707;49.588;12.148;2023-04-03T17:01:19;3.70;74.20
11304;DHT22;5707;49.588;12.148;2023-04-03T17:03:46;3.60;75.70
11304;DHT22;5707;49.588;12.148;2023-04-03T17:06:16;3.60;73.50
11304;DHT22;5707;49.588;12.148;2023-04-03T17:08:44;3.50;75.40
11304;DHT22;5707;49.588;12.148;2023-04-03T17:11:10;3.40;77.10
11304;DHT22;5707;49.588;12.148;2023-04-03T17:13:35;3.40;75.30
11304;DHT22;5707;49.588;12.148;2023-04-03T17:16:02;3.30;74.60
11304;DHT22;5707;49.588;12.148;2023-04-03T17:18:30;3.20;78.40